sensor_id;sensor_type;location;lat;lon;timestamp;P1;durP1;ratioP1;P2;durP2;ratioP2
45198;SDS011;30941;46.422;18.772;2023-07-22T00:00:52;12.65;;;9.85;;
45198;SDS011;30941;46.422;18.772;2023-07-22T00:03:17;12.18;;;9.63;;
45198;SDS011;30941;46.422;18.772;2023-07-22T00:05:42;13.13;;;9.02;;
45198;SDS011;30941;46.422;18.772;2023-07-22T00:08:08;12.63;;;8.85;;
45198;SDS011;30941;46.422;18.772;2023-07-22T00:10:34;11.57;;;10.38;;
45198;SDS011;30941;46.422;18.772;2023-07-22T00:12:59;15.02;;;10.38;;
45198;SDS011;30941;46.422;18.772;2023-07-22T00:15:25;13.95;;;10.23;;
45198;SDS011;30941;46.422;18.772;2023-07-22T00:17:50;13.15;;;10.10;;
45198;SDS011;30941;46.422;18.772;2023-07-22T00:20:16;12.55;;;9.90;;
45198;SDS011;30941;46.422;18.772;2023-07-22T00:22:42;15.75;;;10.98;;
45198;SDS011;30941;46.422;18.772;2023-07-22T00:25:09;15.82;;;10.35;;
45198;SDS011;30941;46.422;18.772;2023-07-22T00:27:36;14.48;;;10.20;;
45198;SDS011;30941;46.422;18.772;2023-07-22T00:30:02;14.00;;;9.50;;
45198;SDS011;30941;46.422;18.772;2023-07-22T00:32:29;13.98;;;10.68;;
45198;SDS011;30941;46.422;18.772;2023-07-22T00:34:54;13.05;;;10.00;;
45198;SDS011;30941;46.422;18.772;2023-07-22T00:37:19;14.27;;;10.18;;
45198;SDS011;30941;46.422;18.772;2023-07-22T00:39:45;10.65;;;9.55;;
45198;SDS011;30941;46.422;18.772;2023-07-22T00:42:10;10.63;;;9.55;;
45198;SDS011;30941;46.422;18.772;2023-07-22T00:44:36;13.15;;;10.05;;
45198;SDS011;30941;46.422;18.772;2023-07-22T00:47:02;14.35;;;10.07;;
45198;SDS011;30941;46.422;18.772;2023-07-22T00:49:27;13.25;;;10.57;;
45198;SDS011;30941;46.422;18.772;2023-07-22T00:51:54;13.77;;;9.60;;
45198;SDS011;30941;46.422;18.772;2023-07-22T00:54:21;14.18;;;9.88;;
45198;SDS011;30941;46.422;18.772;2023-07-22T00:56:46;12.13;;;9.30;;
45198;SDS011;30941;46.422;18.772;2023-07-22T00:59:13;12.70;;;9.27;;
45198;SDS011;30941;46.422;18.772;2023-07-22T01:01:38;10.15;;;9.10;;
45198;SDS011;30941;46.422;18.772;2023-07-22T01:04:05;11.90;;;9.15;;
45198;SDS011;30941;46.422;18.772;2023-07-22T01:06:30;10.45;;;8.93;;
45198;SDS011;30941;46.422;18.772;2023-07-22T01:08:59;11.52;;;9.48;;
45198;SDS011;30941;46.422;18.772;2023-07-22T01:11:24;13.40;;;9.23;;
45198;SDS011;30941;46.422;18.772;2023-07-22T01:13:50;11.20;;;9.18;;
45198;SDS011;30941;46.422;18.772;2023-07-22T01:16:16;12.77;;;10.13;;
45198;SDS011;30941;46.422;18.772;2023-07-22T01:18:42;11.55;;;9.20;;
45198;SDS011;30941;46.422;18.772;2023-07-22T01:21:08;11.20;;;9.40;;
45198;SDS011;30941;46.422;18.772;2023-07-22T01:23:33;12.45;;;9.68;;
45198;SDS011;30941;46.422;18.772;2023-07-22T01:25:59;12.13;;;9.35;;
45198;SDS011;30941;46.422;18.772;2023-07-22T01:28:25;12.38;;;9.70;;
45198;SDS011;30941;46.422;18.772;2023-07-22T01:30:51;13.88;;;9.80;;
45198;SDS011;30941;46.422;18.772;2023-07-22T01:33:17;12.45;;;9.32;;
45198;SDS011;30941;46.422;18.772;2023-07-22T01:35:42;12.68;;;10.23;;
45198;SDS011;30941;46.422;18.772;2023-07-22T01:38:08;13.75;;;9.73;;
45198;SDS011;30941;46.422;18.772;2023-07-22T01:40:33;16.05;;;9.75;;
45198;SDS011;30941;46.422;18.772;2023-07-22T01:42:59;13.30;;;8.98;;
45198;SDS011;30941;46.422;18.772;2023-07-22T01:45:24;13.52;;;9.43;;
45198;SDS011;30941;46.422;18.772;2023-07-22T01:47:50;10.57;;;9.25;;
45198;SDS011;30941;46.422;18.772;2023-07-22T01:50:16;13.95;;;9.93;;
45198;SDS011;30941;46.422;18.772;2023-07-22T01:52:43;11.23;;;9.02;;
45198;SDS011;30941;46.422;18.772;2023-07-22T01:55:09;10.52;;;9.23;;
45198;SDS011;30941;46.422;18.772;2023-07-22T01:57:35;13.05;;;9.55;;
45198;SDS011;30941;46.422;18.772;2023-07-22T02:00:01;13.68;;;9.15;;
45198;SDS011;30941;46.422;18.772;2023-07-22T02:02:26;15.75;;;10.13;;
45198;SDS011;30941;46.422;18.772;2023-07-22T02:04:52;15.88;;;10.00;;
45198;SDS011;30941;46.422;18.772;2023-07-22T02:07:17;12.38;;;9.98;;
45198;SDS011;30941;46.422;18.772;2023-07-22T02:09:43;10.68;;;9.40;;
45198;SDS011;30941;46.422;18.772;2023-07-22T02:12:09;15.43;;;10.60;;
45198;SDS011;30941;46.422;18.772;2023-07-22T02:14:35;18.30;;;10.15;;
45198;SDS011;30941;46.422;18.772;2023-07-22T02:17:02;11.98;;;10.30;;
45198;SDS011;30941;46.422;18.772;2023-07-22T02:19:27;13.13;;;10.48;;
45198;SDS011;30941;46.422;18.772;2023-07-22T02:21:54;12.90;;;11.20;;
45198;SDS011;30941;46.422;18.772;2023-07-22T02:24:19;12.23;;;10.90;;
45198;SDS011;30941;46.422;18.772;2023-07-22T02:26:44;13.13;;;11.55;;
45198;SDS011;30941;46.422;18.772;2023-07-22T02:29:10;15.38;;;10.77;;
45198;SDS011;30941;46.422;18.772;2023-07-22T02:31:37;12.70;;;11.40;;
45198;SDS011;30941;46.422;18.772;2023-07-22T02:34:02;15.95;;;11.45;;
45198;SDS011;30941;46.422;18.772;2023-07-22T02:36:27;13.57;;;11.10;;
45198;SDS011;30941;46.422;18.772;2023-07-22T02:38:53;15.98;;;11.77;;
45198;SDS011;30941;46.422;18.772;2023-07-22T02:41:18;13.93;;;12.45;;
45198;SDS011;30941;46.422;18.772;2023-07-22T02:43:43;12.88;;;11.55;;
45198;SDS011;30941;46.422;18.772;2023-07-22T02:46:09;13.18;;;11.80;;
45198;SDS011;30941;46.422;18.772;2023-07-22T02:48:34;18.77;;;12.80;;
45198;SDS011;30941;46.422;18.772;2023-07-22T02:51:06;13.80;;;12.07;;
45198;SDS011;30941;46.422;18.772;2023-07-22T02:53:32;12.90;;;11.27;;
45198;SDS011;30941;46.422;18.772;2023-07-22T02:55:59;14.65;;;12.15;;
45198;SDS011;30941;46.422;18.772;2023-07-22T02:58:24;16.02;;;12.35;;
45198;SDS011;30941;46.422;18.772;2023-07-22T03:00:50;17.85;;;11.60;;
45198;SDS011;30941;46.422;18.772;2023-07-22T03:03:15;13.02;;;11.73;;
45198;SDS011;30941;46.422;18.772;2023-07-22T03:05:40;15.20;;;11.43;;
45198;SDS011;30941;46.422;18.772;2023-07-22T03:08:06;13.82;;;11.73;;
45198;SDS011;30941;46.422;18.772;2023-07-22T03:10:32;16.00;;;11.80;;
45198;SDS011;30941;46.422;18.772;2023-07-22T03:12:57;14.75;;;13.23;;
45198;SDS011;30941;46.422;18.772;2023-07-22T03:15:24;19.83;;;14.20;;
45198;SDS011;30941;46.422;18.772;2023-07-22T03:17:53;14.50;;;12.57;;
45198;SDS011;30941;46.422;18.772;2023-07-22T03:20:24;16.85;;;12.50;;
45198;SDS011;30941;46.422;18.772;2023-07-22T03:22:51;14.63;;;12.77;;
45198;SDS011;30941;46.422;18.772;2023-07-22T03:25:16;16.10;;;12.65;;
45198;SDS011;30941;46.422;18.772;2023-07-22T03:27:42;15.40;;;12.52;;
45198;SDS011;30941;46.422;18.772;2023-07-22T03:30:10;13.85;;;12.00;;
45198;SDS011;30941;46.422;18.772;2023-07-22T03:32:40;14.80;;;12.68;;
45198;SDS011;30941;46.422;18.772;2023-07-22T03:35:06;15.05;;;12.20;;
45198;SDS011;30941;46.422;18.772;2023-07-22T03:37:33;12.65;;;11.43;;
45198;SDS011;30941;46.422;18.772;2023-07-22T03:40:01;13.55;;;11.88;;
45198;SDS011;30941;46.422;18.772;2023-07-22T03:42:26;16.38;;;11.88;;
45198;SDS011;30941;46.422;18.772;2023-07-22T03:44:52;14.18;;;12.57;;
45198;SDS011;30941;46.422;18.772;2023-07-22T03:47:18;15.70;;;12.18;;
45198;SDS011;30941;46.422;18.772;2023-07-22T03:49:44;13.85;;;11.55;;
45198;SDS011;30941;46.422;18.772;2023-07-22T03:52:09;15.65;;;12.13;;
45198;SDS011;30941;46.422;18.772;2023-07-22T03:54:39;16.25;;;12.55;;
45198;SDS011;30941;46.422;18.772;2023-07-22T03:57:04;13.43;;;12.00;;
45198;SDS011;30941;46.422;18.772;2023-07-22T03:59:30;15.18;;;12.90;;
45198;SDS011;30941;46.422;18.772;2023-07-22T04:01:55;14.88;;;12.35;;
45198;SDS011;30941;46.422;18.772;2023-07-22T04:04:20;13.40;;;12.02;;
45198;SDS011;30941;46.422;18.772;2023-07-22T04:06:46;14.60;;;11.98;;
45198;SDS011;30941;46.422;18.772;2023-07-22T04:09:11;15.52;;;12.40;;
45198;SDS011;30941;46.422;18.772;2023-07-22T04:11:36;16.27;;;12.88;;
45198;SDS011;30941;46.422;18.772;2023-07-22T04:14:02;15.63;;;12.65;;
45198;SDS011;30941;46.422;18.772;2023-07-22T04:16:27;13.82;;;12.23;;
45198;SDS011;30941;46.422;18.772;2023-07-22T04:18:52;16.95;;;13.23;;
45198;SDS011;30941;46.422;18.772;2023-07-22T04:21:18;15.40;;;12.48;;
45198;SDS011;30941;46.422;18.772;2023-07-22T04:23:43;14.88;;;13.00;;
45198;SDS011;30941;46.422;18.772;2023-07-22T04:26:10;15.60;;;12.77;;
45198;SDS011;30941;46.422;18.772;2023-07-22T04:28:35;16.83;;;12.13;;
45198;SDS011;30941;46.422;18.772;2023-07-22T04:31:00;18.50;;;12.95;;
45198;SDS011;30941;46.422;18.772;2023-07-22T04:33:26;17.60;;;13.52;;
45198;SDS011;30941;46.422;18.772;2023-07-22T04:35:57;16.23;;;13.50;;
45198;SDS011;30941;46.422;18.772;2023-07-22T04:38:23;13.68;;;11.65;;
45198;SDS011;30941;46.422;18.772;2023-07-22T04:40:49;14.60;;;12.63;;
45198;SDS011;30941;46.422;18.772;2023-07-22T04:43:14;13.75;;;11.93;;
45198;SDS011;30941;46.422;18.772;2023-07-22T04:45:39;17.75;;;12.20;;
45198;SDS011;30941;46.422;18.772;2023-07-22T04:48:05;15.63;;;12.20;;
45198;SDS011;30941;46.422;18.772;2023-07-22T04:50:31;15.15;;;12.05;;
45198;SDS011;30941;46.422;18.772;2023-07-22T04:52:56;13.77;;;12.32;;
45198;SDS011;30941;46.422;18.772;2023-07-22T04:55:22;14.30;;;12.20;;
45198;SDS011;30941;46.422;18.772;2023-07-22T04:57:47;15.00;;;12.75;;
45198;SDS011;30941;46.422;18.772;2023-07-22T05:00:13;13.60;;;12.20;;
45198;SDS011;30941;46.422;18.772;2023-07-22T05:02:44;14.48;;;11.75;;
45198;SDS011;30941;46.422;18.772;2023-07-22T05:05:10;14.73;;;11.88;;
45198;SDS011;30941;46.422;18.772;2023-07-22T05:07:36;13.35;;;11.52;;
45198;SDS011;30941;46.422;18.772;2023-07-22T05:10:02;18.90;;;11.52;;
45198;SDS011;30941;46.422;18.772;2023-07-22T05:12:27;14.95;;;10.57;;
45198;SDS011;30941;46.422;18.772;2023-07-22T05:14:53;14.68;;;11.80;;
45198;SDS011;30941;46.422;18.772;2023-07-22T05:17:18;13.77;;;11.48;;
45198;SDS011;30941;46.422;18.772;2023-07-22T05:19:43;13.55;;;12.02;;
45198;SDS011;30941;46.422;18.772;2023-07-22T05:22:09;13.95;;;11.77;;
45198;SDS011;30941;46.422;18.772;2023-07-22T05:24:34;14.05;;;11.30;;
45198;SDS011;30941;46.422;18.772;2023-07-22T05:27:00;15.25;;;11.63;;
45198;SDS011;30941;46.422;18.772;2023-07-22T05:29:25;13.68;;;11.77;;
45198;SDS011;30941;46.422;18.772;2023-07-22T05:31:51;16.08;;;12.68;;
45198;SDS011;30941;46.422;18.772;2023-07-22T05:34:16;12.23;;;11.02;;
45198;SDS011;30941;46.422;18.772;2023-07-22T05:36:41;13.90;;;11.98;;
45198;SDS011;30941;46.422;18.772;2023-07-22T05:39:07;13.65;;;12.25;;
45198;SDS011;30941;46.422;18.772;2023-07-22T05:41:32;13.00;;;11.63;;
45198;SDS011;30941;46.422;18.772;2023-07-22T05:43:58;13.43;;;12.02;;
45198;SDS011;30941;46.422;18.772;2023-07-22T05:46:23;17.00;;;12.45;;
45198;SDS011;30941;46.422;18.772;2023-07-22T05:48:49;19.08;;;13.05;;
45198;SDS011;30941;46.422;18.772;2023-07-22T05:51:15;12.90;;;10.80;;
45198;SDS011;30941;46.422;18.772;2023-07-22T05:53:41;14.90;;;12.35;;
45198;SDS011;30941;46.422;18.772;2023-07-22T05:56:06;13.80;;;11.27;;
45198;SDS011;30941;46.422;18.772;2023-07-22T05:58:32;13.00;;;11.70;;
45198;SDS011;30941;46.422;18.772;2023-07-22T06:00:57;15.80;;;11.43;;
45198;SDS011;30941;46.422;18.772;2023-07-22T06:03:23;13.65;;;11.52;;
45198;SDS011;30941;46.422;18.772;2023-07-22T06:05:48;14.25;;;11.32;;
45198;SDS011;30941;46.422;18.772;2023-07-22T06:08:13;12.23;;;10.93;;
45198;SDS011;30941;46.422;18.772;2023-07-22T06:10:42;12.25;;;9.50;;
45198;SDS011;30941;46.422;18.772;2023-07-22T06:13:07;13.45;;;10.18;;
45198;SDS011;30941;46.422;18.772;2023-07-22T06:15:33;12.93;;;9.48;;
45198;SDS011;30941;46.422;18.772;2023-07-22T06:17:59;11.20;;;8.02;;
45198;SDS011;30941;46.422;18.772;2023-07-22T06:20:25;9.60;;;7.07;;
45198;SDS011;30941;46.422;18.772;2023-07-22T06:22:50;11.35;;;8.35;;
45198;SDS011;30941;46.422;18.772;2023-07-22T06:25:16;11.90;;;8.75;;
45198;SDS011;30941;46.422;18.772;2023-07-22T06:27:41;9.35;;;7.18;;
45198;SDS011;30941;46.422;18.772;2023-07-22T06:30:07;10.05;;;7.32;;
45198;SDS011;30941;46.422;18.772;2023-07-22T06:32:33;10.80;;;7.05;;
45198;SDS011;30941;46.422;18.772;2023-07-22T06:34:59;9.77;;;6.55;;
45198;SDS011;30941;46.422;18.772;2023-07-22T06:37:24;9.15;;;5.93;;
45198;SDS011;30941;46.422;18.772;2023-07-22T06:39:51;7.45;;;6.40;;
45198;SDS011;30941;46.422;18.772;2023-07-22T06:42:16;8.00;;;6.80;;
45198;SDS011;30941;46.422;18.772;2023-07-22T06:44:42;10.93;;;6.28;;
45198;SDS011;30941;46.422;18.772;2023-07-22T06:47:08;10.25;;;6.35;;
45198;SDS011;30941;46.422;18.772;2023-07-22T06:49:33;7.88;;;5.88;;
45198;SDS011;30941;46.422;18.772;2023-07-22T06:51:58;7.13;;;5.43;;
45198;SDS011;30941;46.422;18.772;2023-07-22T06:54:24;7.03;;;5.43;;
45198;SDS011;30941;46.422;18.772;2023-07-22T06:56:49;6.07;;;4.25;;
45198;SDS011;30941;46.422;18.772;2023-07-22T06:59:14;7.07;;;4.30;;
45198;SDS011;30941;46.422;18.772;2023-07-22T07:01:40;5.80;;;3.88;;
45198;SDS011;30941;46.422;18.772;2023-07-22T07:04:06;7.25;;;4.05;;
45198;SDS011;30941;46.422;18.772;2023-07-22T07:06:31;7.00;;;3.90;;
45198;SDS011;30941;46.422;18.772;2023-07-22T07:08:58;6.63;;;3.75;;
45198;SDS011;30941;46.422;18.772;2023-07-22T07:11:25;5.55;;;3.75;;
45198;SDS011;30941;46.422;18.772;2023-07-22T07:13:51;5.22;;;3.50;;
45198;SDS011;30941;46.422;18.772;2023-07-22T07:16:28;9.98;;;3.75;;
45198;SDS011;30941;46.422;18.772;2023-07-22T07:18:56;11.73;;;4.10;;
45198;SDS011;30941;46.422;18.772;2023-07-22T07:21:22;5.38;;;3.65;;
45198;SDS011;30941;46.422;18.772;2023-07-22T07:23:48;6.68;;;3.90;;
45198;SDS011;30941;46.422;18.772;2023-07-22T07:26:14;11.30;;;4.10;;
45198;SDS011;30941;46.422;18.772;2023-07-22T07:28:40;9.43;;;4.40;;
45198;SDS011;30941;46.422;18.772;2023-07-22T07:31:05;6.50;;;4.43;;
45198;SDS011;30941;46.422;18.772;2023-07-22T07:33:31;6.45;;;3.95;;
45198;SDS011;30941;46.422;18.772;2023-07-22T07:35:56;7.18;;;4.00;;
45198;SDS011;30941;46.422;18.772;2023-07-22T07:38:22;4.70;;;3.40;;
45198;SDS011;30941;46.422;18.772;2023-07-22T07:40:51;5.75;;;3.40;;
45198;SDS011;30941;46.422;18.772;2023-07-22T07:43:24;4.47;;;3.33;;
45198;SDS011;30941;46.422;18.772;2023-07-22T07:45:49;5.22;;;3.63;;
45198;SDS011;30941;46.422;18.772;2023-07-22T07:48:15;7.82;;;3.33;;
45198;SDS011;30941;46.422;18.772;2023-07-22T07:50:41;7.07;;;3.35;;
45198;SDS011;30941;46.422;18.772;2023-07-22T07:53:07;4.43;;;3.35;;
45198;SDS011;30941;46.422;18.772;2023-07-22T07:55:33;5.30;;;3.42;;
45198;SDS011;30941;46.422;18.772;2023-07-22T07:57:58;5.85;;;3.40;;
45198;SDS011;30941;46.422;18.772;2023-07-22T08:00:24;5.82;;;2.90;;
45198;SDS011;30941;46.422;18.772;2023-07-22T08:02:49;8.23;;;4.32;;
45198;SDS011;30941;46.422;18.772;2023-07-22T08:05:15;8.95;;;4.57;;
45198;SDS011;30941;46.422;18.772;2023-07-22T08:07:41;6.47;;;3.65;;
45198;SDS011;30941;46.422;18.772;2023-07-22T08:10:06;21.65;;;7.13;;
45198;SDS011;30941;46.422;18.772;2023-07-22T08:12:32;9.40;;;4.45;;
45198;SDS011;30941;46.422;18.772;2023-07-22T08:14:58;6.63;;;3.20;;
45198;SDS011;30941;46.422;18.772;2023-07-22T08:17:24;5.10;;;3.75;;
45198;SDS011;30941;46.422;18.772;2023-07-22T08:19:49;4.07;;;3.20;;
45198;SDS011;30941;46.422;18.772;2023-07-22T08:22:14;19.48;;;14.02;;
45198;SDS011;30941;46.422;18.772;2023-07-22T08:24:40;9.27;;;5.50;;
45198;SDS011;30941;46.422;18.772;2023-07-22T08:27:05;9.50;;;6.13;;
45198;SDS011;30941;46.422;18.772;2023-07-22T08:29:31;11.27;;;6.85;;
45198;SDS011;30941;46.422;18.772;2023-07-22T08:31:56;8.93;;;4.13;;
45198;SDS011;30941;46.422;18.772;2023-07-22T08:34:21;16.52;;;5.53;;
45198;SDS011;30941;46.422;18.772;2023-07-22T08:36:47;26.23;;;10.52;;
45198;SDS011;30941;46.422;18.772;2023-07-22T08:39:12;10.25;;;4.38;;
45198;SDS011;30941;46.422;18.772;2023-07-22T08:41:38;6.93;;;3.47;;
45198;SDS011;30941;46.422;18.772;2023-07-22T08:44:04;7.78;;;3.83;;
45198;SDS011;30941;46.422;18.772;2023-07-22T08:46:30;4.15;;;3.25;;
45198;SDS011;30941;46.422;18.772;2023-07-22T08:48:59;6.15;;;2.97;;
45198;SDS011;30941;46.422;18.772;2023-07-22T08:51:25;4.43;;;2.90;;
45198;SDS011;30941;46.422;18.772;2023-07-22T08:53:53;4.82;;;2.88;;
45198;SDS011;30941;46.422;18.772;2023-07-22T08:56:21;6.28;;;2.85;;
45198;SDS011;30941;46.422;18.772;2023-07-22T08:58:49;4.00;;;2.85;;
45198;SDS011;30941;46.422;18.772;2023-07-22T09:01:18;6.28;;;3.03;;
45198;SDS011;30941;46.422;18.772;2023-07-22T09:03:44;4.65;;;2.00;;
45198;SDS011;30941;46.422;18.772;2023-07-22T09:06:10;3.97;;;2.60;;
45198;SDS011;30941;46.422;18.772;2023-07-22T09:08:35;3.40;;;2.47;;
45198;SDS011;30941;46.422;18.772;2023-07-22T09:11:01;5.25;;;2.50;;
45198;SDS011;30941;46.422;18.772;2023-07-22T09:13:26;3.35;;;2.63;;
45198;SDS011;30941;46.422;18.772;2023-07-22T09:15:52;6.28;;;2.50;;
45198;SDS011;30941;46.422;18.772;2023-07-22T09:18:18;4.13;;;2.70;;
45198;SDS011;30941;46.422;18.772;2023-07-22T09:20:43;4.88;;;3.05;;
45198;SDS011;30941;46.422;18.772;2023-07-22T09:23:09;4.80;;;2.53;;
45198;SDS011;30941;46.422;18.772;2023-07-22T09:25:34;3.33;;;2.42;;
45198;SDS011;30941;46.422;18.772;2023-07-22T09:28:00;3.30;;;2.40;;
45198;SDS011;30941;46.422;18.772;2023-07-22T09:30:26;3.78;;;2.35;;
45198;SDS011;30941;46.422;18.772;2023-07-22T09:32:56;4.25;;;2.60;;
45198;SDS011;30941;46.422;18.772;2023-07-22T09:35:25;5.33;;;2.30;;
45198;SDS011;30941;46.422;18.772;2023-07-22T09:37:53;4.90;;;2.60;;
45198;SDS011;30941;46.422;18.772;2023-07-22T09:42:48;3.95;;;2.63;;
45198;SDS011;30941;46.422;18.772;2023-07-22T09:45:16;4.55;;;2.42;;
45198;SDS011;30941;46.422;18.772;2023-07-22T09:47:43;3.35;;;2.05;;
45198;SDS011;30941;46.422;18.772;2023-07-22T09:50:10;3.22;;;2.38;;
45198;SDS011;30941;46.422;18.772;2023-07-22T09:55:16;4.15;;;2.40;;
45198;SDS011;30941;46.422;18.772;2023-07-22T09:57:58;5.32;;;2.67;;
45198;SDS011;30941;46.422;18.772;2023-07-22T10:00:27;3.60;;;2.40;;
45198;SDS011;30941;46.422;18.772;2023-07-22T10:02:56;3.90;;;2.42;;
45198;SDS011;30941;46.422;18.772;2023-07-22T10:05:22;5.50;;;2.80;;
45198;SDS011;30941;46.422;18.772;2023-07-22T10:07:49;3.58;;;2.40;;
45198;SDS011;30941;46.422;18.772;2023-07-22T10:10:16;3.65;;;2.58;;
45198;SDS011;30941;46.422;18.772;2023-07-22T10:12:43;3.40;;;2.22;;
45198;SDS011;30941;46.422;18.772;2023-07-22T10:15:10;4.55;;;2.60;;
45198;SDS011;30941;46.422;18.772;2023-07-22T10:17:37;5.47;;;2.53;;
45198;SDS011;30941;46.422;18.772;2023-07-22T10:20:03;3.42;;;2.45;;
45198;SDS011;30941;46.422;18.772;2023-07-22T10:22:36;5.57;;;2.63;;
45198;SDS011;30941;46.422;18.772;2023-07-22T10:25:05;3.80;;;2.90;;
45198;SDS011;30941;46.422;18.772;2023-07-22T10:27:35;4.82;;;2.92;;
45198;SDS011;30941;46.422;18.772;2023-07-22T10:30:00;3.70;;;2.72;;
45198;SDS011;30941;46.422;18.772;2023-07-22T10:32:34;3.42;;;2.50;;
45198;SDS011;30941;46.422;18.772;2023-07-22T10:35:01;4.22;;;2.50;;
45198;SDS011;30941;46.422;18.772;2023-07-22T10:37:29;3.85;;;2.45;;
45198;SDS011;30941;46.422;18.772;2023-07-22T10:39:58;3.75;;;2.67;;
45198;SDS011;30941;46.422;18.772;2023-07-22T10:42:24;4.75;;;2.60;;
45198;SDS011;30941;46.422;18.772;2023-07-22T10:44:50;4.20;;;2.50;;
45198;SDS011;30941;46.422;18.772;2023-07-22T10:47:30;4.15;;;2.40;;
45198;SDS011;30941;46.422;18.772;2023-07-22T10:49:56;4.78;;;2.92;;
45198;SDS011;30941;46.422;18.772;2023-07-22T10:52:38;4.68;;;2.72;;
45198;SDS011;30941;46.422;18.772;2023-07-22T10:55:13;4.88;;;2.55;;
45198;SDS011;30941;46.422;18.772;2023-07-22T10:57:53;6.43;;;3.05;;
45198;SDS011;30941;46.422;18.772;2023-07-22T11:00:20;5.57;;;3.08;;
45198;SDS011;30941;46.422;18.772;2023-07-22T11:02:47;6.13;;;2.85;;
45198;SDS011;30941;46.422;18.772;2023-07-22T11:05:49;11.60;;;3.10;;
45198;SDS011;30941;46.422;18.772;2023-07-22T11:08:34;4.53;;;2.80;;
45198;SDS011;30941;46.422;18.772;2023-07-22T11:11:01;3.75;;;2.58;;
45198;SDS011;30941;46.422;18.772;2023-07-22T11:13:27;3.90;;;2.55;;
45198;SDS011;30941;46.422;18.772;2023-07-22T11:15:58;4.47;;;3.00;;
45198;SDS011;30941;46.422;18.772;2023-07-22T11:18:35;5.07;;;2.90;;
45198;SDS011;30941;46.422;18.772;2023-07-22T11:21:01;5.22;;;3.05;;
45198;SDS011;30941;46.422;18.772;2023-07-22T11:23:27;6.20;;;2.78;;
45198;SDS011;30941;46.422;18.772;2023-07-22T11:25:53;4.60;;;2.80;;
45198;SDS011;30941;46.422;18.772;2023-07-22T11:28:18;5.35;;;3.20;;
45198;SDS011;30941;46.422;18.772;2023-07-22T11:30:44;5.68;;;3.22;;
45198;SDS011;30941;46.422;18.772;2023-07-22T11:33:09;5.28;;;3.03;;
45198;SDS011;30941;46.422;18.772;2023-07-22T11:35:35;4.38;;;3.05;;
45198;SDS011;30941;46.422;18.772;2023-07-22T11:38:01;4.95;;;3.47;;
45198;SDS011;30941;46.422;18.772;2023-07-22T11:40:34;5.72;;;3.35;;
45198;SDS011;30941;46.422;18.772;2023-07-22T11:43:00;4.15;;;2.83;;
45198;SDS011;30941;46.422;18.772;2023-07-22T11:45:25;12.60;;;4.72;;
45198;SDS011;30941;46.422;18.772;2023-07-22T11:47:50;9.18;;;3.30;;
45198;SDS011;30941;46.422;18.772;2023-07-22T11:50:16;4.57;;;3.13;;
45198;SDS011;30941;46.422;18.772;2023-07-22T11:52:41;6.22;;;3.10;;
45198;SDS011;30941;46.422;18.772;2023-07-22T11:55:06;5.07;;;3.15;;
45198;SDS011;30941;46.422;18.772;2023-07-22T11:57:32;4.30;;;3.05;;
45198;SDS011;30941;46.422;18.772;2023-07-22T11:59:57;5.72;;;3.50;;
45198;SDS011;30941;46.422;18.772;2023-07-22T12:02:23;4.88;;;3.25;;
45198;SDS011;30941;46.422;18.772;2023-07-22T12:04:55;5.25;;;3.50;;
45198;SDS011;30941;46.422;18.772;2023-07-22T12:07:25;5.45;;;3.08;;
45198;SDS011;30941;46.422;18.772;2023-07-22T12:09:53;5.50;;;3.47;;
45198;SDS011;30941;46.422;18.772;2023-07-22T12:12:20;7.05;;;3.38;;
45198;SDS011;30941;46.422;18.772;2023-07-22T12:14:46;6.72;;;3.33;;
45198;SDS011;30941;46.422;18.772;2023-07-22T12:17:11;4.38;;;3.00;;
45198;SDS011;30941;46.422;18.772;2023-07-22T12:19:36;4.97;;;3.33;;
45198;SDS011;30941;46.422;18.772;2023-07-22T12:22:03;4.90;;;3.40;;
45198;SDS011;30941;46.422;18.772;2023-07-22T12:24:29;5.60;;;3.40;;
45198;SDS011;30941;46.422;18.772;2023-07-22T12:26:54;7.20;;;3.58;;
45198;SDS011;30941;46.422;18.772;2023-07-22T12:29:20;4.68;;;3.00;;
45198;SDS011;30941;46.422;18.772;2023-07-22T12:31:47;5.43;;;2.90;;
45198;SDS011;30941;46.422;18.772;2023-07-22T12:34:12;5.95;;;3.13;;
45198;SDS011;30941;46.422;18.772;2023-07-22T12:36:38;6.38;;;3.10;;
45198;SDS011;30941;46.422;18.772;2023-07-22T12:39:03;6.28;;;3.50;;
45198;SDS011;30941;46.422;18.772;2023-07-22T12:41:29;5.10;;;2.90;;
45198;SDS011;30941;46.422;18.772;2023-07-22T12:43:55;5.53;;;3.30;;
45198;SDS011;30941;46.422;18.772;2023-07-22T12:46:20;4.10;;;2.85;;
45198;SDS011;30941;46.422;18.772;2023-07-22T12:48:46;4.60;;;2.90;;
45198;SDS011;30941;46.422;18.772;2023-07-22T12:51:12;4.28;;;3.05;;
45198;SDS011;30941;46.422;18.772;2023-07-22T12:53:38;9.68;;;4.68;;
45198;SDS011;30941;46.422;18.772;2023-07-22T12:56:04;4.97;;;2.85;;
45198;SDS011;30941;46.422;18.772;2023-07-22T12:58:30;5.25;;;3.17;;
45198;SDS011;30941;46.422;18.772;2023-07-22T13:00:56;4.30;;;3.05;;
45198;SDS011;30941;46.422;18.772;2023-07-22T13:03:21;5.70;;;2.92;;
45198;SDS011;30941;46.422;18.772;2023-07-22T13:05:47;4.35;;;2.90;;
45198;SDS011;30941;46.422;18.772;2023-07-22T13:08:12;8.05;;;3.20;;
45198;SDS011;30941;46.422;18.772;2023-07-22T13:10:38;4.57;;;2.80;;
45198;SDS011;30941;46.422;18.772;2023-07-22T13:13:08;5.60;;;2.92;;
45198;SDS011;30941;46.422;18.772;2023-07-22T13:15:34;4.78;;;3.00;;
45198;SDS011;30941;46.422;18.772;2023-07-22T13:17:59;4.25;;;2.88;;
45198;SDS011;30941;46.422;18.772;2023-07-22T13:20:25;5.35;;;3.25;;
45198;SDS011;30941;46.422;18.772;2023-07-22T13:22:50;5.30;;;3.60;;
45198;SDS011;30941;46.422;18.772;2023-07-22T13:25:15;5.82;;;2.80;;
45198;SDS011;30941;46.422;18.772;2023-07-22T13:27:41;3.80;;;2.85;;
45198;SDS011;30941;46.422;18.772;2023-07-22T13:30:06;5.22;;;2.90;;
45198;SDS011;30941;46.422;18.772;2023-07-22T13:32:32;7.35;;;3.00;;
45198;SDS011;30941;46.422;18.772;2023-07-22T13:34:58;7.65;;;2.97;;
45198;SDS011;30941;46.422;18.772;2023-07-22T13:37:23;4.80;;;2.90;;
45198;SDS011;30941;46.422;18.772;2023-07-22T13:39:48;4.47;;;2.70;;
45198;SDS011;30941;46.422;18.772;2023-07-22T13:42:14;5.53;;;2.92;;
45198;SDS011;30941;46.422;18.772;2023-07-22T13:44:39;4.43;;;2.80;;
45198;SDS011;30941;46.422;18.772;2023-07-22T13:47:04;5.78;;;2.95;;
45198;SDS011;30941;46.422;18.772;2023-07-22T13:49:30;4.35;;;3.10;;
45198;SDS011;30941;46.422;18.772;2023-07-22T13:51:55;4.47;;;3.08;;
45198;SDS011;30941;46.422;18.772;2023-07-22T13:54:21;5.90;;;2.92;;
45198;SDS011;30941;46.422;18.772;2023-07-22T13:56:46;4.85;;;3.08;;
45198;SDS011;30941;46.422;18.772;2023-07-22T13:59:12;5.32;;;2.85;;
45198;SDS011;30941;46.422;18.772;2023-07-22T14:01:38;4.10;;;2.85;;
45198;SDS011;30941;46.422;18.772;2023-07-22T14:04:04;5.10;;;2.97;;
45198;SDS011;30941;46.422;18.772;2023-07-22T14:06:30;7.68;;;3.05;;
45198;SDS011;30941;46.422;18.772;2023-07-22T14:08:55;3.80;;;2.72;;
45198;SDS011;30941;46.422;18.772;2023-07-22T14:11:20;3.95;;;2.63;;
45198;SDS011;30941;46.422;18.772;2023-07-22T14:13:46;4.53;;;2.92;;
45198;SDS011;30941;46.422;18.772;2023-07-22T14:16:11;4.10;;;2.70;;
45198;SDS011;30941;46.422;18.772;2023-07-22T14:18:36;4.88;;;2.85;;
45198;SDS011;30941;46.422;18.772;2023-07-22T14:21:02;7.30;;;3.22;;
45198;SDS011;30941;46.422;18.772;2023-07-22T14:23:27;5.15;;;3.30;;